Tropical I — CRLU8 — position and weather

sailwx.info

Track history (hours):
 
Tides and Currents Weather Stations Pressure Air Temp Water Temp Dewpoint Dewpoint Depression Visibility Wind Speed Wind Dir Waves Ship Positions

Tropical I

Last reported at 2015-Jan-31 16:16 UTC. Time now 2015-Feb-01 07:08 UTC.
Position N 38°42' W 009°12'.

Length 11 m.

Type: Pleasure craft. MMSI: 263818940.

Date/timePositionNaut miles runAvg speedWind from/ knotsBaromVisibWave heightAir tempDewpointWater temp
2015-Jan-31 16:16N 38°42' W 009°12'0 0.5
2015-Jan-31 15:32N 38°41' W 009°13'3 3.4
2015-Jan-31 14:33N 38°42' W 009°08'1 0.8
2015-Jan-31 13:33N 38°42' W 009°07'5 4.7
2015-Jan-31 12:33N 38°41' W 009°13'1 0.8
2015-Jan-31 11:33N 38°41' W 009°12'  
2015-Jan-24 14:33N 38°42' W 009°12'2 2.1
2015-Jan-24 13:32N 38°41' W 009°15'3 2.6
2015-Jan-24 12:33N 38°41' W 009°18'5 4.5
2015-Jan-24 11:30N 38°42' W 009°12'  
Track history (hours):
 
Tides and Currents Weather Stations Pressure Air Temp Water Temp Dewpoint Dewpoint Depression Visibility Wind Speed Wind Dir Waves Ship Positions

Tropical I

Last reported at 2015-Jan-31 16:16 UTC. Time now 2015-Feb-01 07:08 UTC.
Position N 38°42' W 009°12'.

Length 11 m.

Type: Pleasure craft. MMSI: 263818940.

Date/timePositionNaut miles runAvg speedWind from/ knotsBaromVisibWave heightAir tempDewpointWater temp
2015-Jan-31 16:16N 38°42' W 009°12'0 0.5
2015-Jan-31 15:32N 38°41' W 009°13'3 3.4
2015-Jan-31 14:33N 38°42' W 009°08'1 0.8
2015-Jan-31 13:33N 38°42' W 009°07'5 4.7
2015-Jan-31 12:33N 38°41' W 009°13'1 0.8
2015-Jan-31 11:33N 38°41' W 009°12'  
2015-Jan-24 14:33N 38°42' W 009°12'2 2.1
2015-Jan-24 13:32N 38°41' W 009°15'3 2.6
2015-Jan-24 12:33N 38°41' W 009°18'5 4.5
2015-Jan-24 11:30N 38°42' W 009°12'  

Dump ship's entire track history